createdAt,value
2022-08-14T00:00:20.717Z,23.04
2022-08-14T00:02:52.596Z,23.14
2022-08-14T00:05:22.586Z,23.11
2022-08-14T00:07:51.393Z,23.01
2022-08-14T00:10:49.703Z,22.94
2022-08-14T00:13:14.516Z,23.19
2022-08-14T00:15:48.150Z,23.10
2022-08-14T00:18:30.224Z,22.93
2022-08-14T00:21:11.035Z,23.06
2022-08-14T00:23:40.084Z,22.95
2022-08-14T00:26:21.665Z,22.95
2022-08-14T00:28:52.244Z,23.06
2022-08-14T00:31:23.110Z,22.85
2022-08-14T00:34:36.142Z,22.97
2022-08-14T00:36:52.232Z,22.79
2022-08-14T00:39:21.677Z,22.98
2022-08-14T00:41:51.227Z,22.93
2022-08-14T00:44:26.703Z,22.93
2022-08-14T00:47:00.989Z,23.09
2022-08-14T00:49:37.965Z,22.84
2022-08-14T00:52:07.106Z,22.61
2022-08-14T00:54:37.508Z,22.86
2022-08-14T00:57:07.822Z,23.01
2022-08-14T00:59:37.274Z,22.98
2022-08-14T01:02:06.747Z,22.95
2022-08-14T01:04:53.449Z,22.76
2022-08-14T01:07:23.799Z,22.92
2022-08-14T01:09:54.473Z,22.85
2022-08-14T01:12:26.902Z,22.84
2022-08-14T01:14:58.269Z,22.86
2022-08-14T01:17:49.793Z,22.89
2022-08-14T01:20:41.804Z,22.86
2022-08-14T01:23:15.735Z,22.95
2022-08-14T01:25:49.122Z,23.05
2022-08-14T01:28:34.513Z,22.90
2022-08-14T01:31:09.875Z,22.94
2022-08-14T01:34:00.189Z,23.01
2022-08-14T01:36:36.861Z,22.86
2022-08-14T01:39:09.592Z,22.90
2022-08-14T01:41:42.521Z,22.85
2022-08-14T01:44:33.364Z,22.78
2022-08-14T01:47:09.694Z,22.87
2022-08-14T01:49:42.709Z,22.81
2022-08-14T01:52:33.978Z,22.93
2022-08-14T01:55:06.693Z,22.80
2022-08-14T01:57:49.366Z,22.53
2022-08-14T02:00:27.670Z,22.75
2022-08-14T02:02:58.346Z,22.58
2022-08-14T02:05:29.537Z,22.74
2022-08-14T02:08:09.062Z,22.76
2022-08-14T02:10:47.040Z,22.86
2022-08-14T02:13:17.502Z,22.66
2022-08-14T02:15:48.475Z,22.66
2022-08-14T02:18:18.190Z,22.68
2022-08-14T02:20:47.521Z,22.45
2022-08-14T02:23:16.001Z,22.75
2022-08-14T02:25:54.747Z,22.65
2022-08-14T02:28:56.967Z,22.69
2022-08-14T02:31:14.867Z,22.57
2022-08-14T02:33:43.722Z,22.92
2022-08-14T02:37:02.518Z,22.67
2022-08-14T02:39:01.743Z,22.51
2022-08-14T02:41:42.109Z,22.42
2022-08-14T02:44:29.756Z,22.49
2022-08-14T02:47:01.481Z,22.54
2022-08-14T02:49:34.207Z,22.60
2022-08-14T02:52:03.291Z,22.71
2022-08-14T02:54:52.765Z,22.74
2022-08-14T02:57:39.471Z,22.58
2022-08-14T03:00:17.934Z,22.50
2022-08-14T03:02:56.135Z,22.46
2022-08-14T03:05:36.229Z,22.67
2022-08-14T03:08:09.612Z,22.70
2022-08-14T03:10:42.053Z,22.72
2022-08-14T03:13:21.194Z,22.57
2022-08-14T03:15:55.615Z,22.54
2022-08-14T03:18:31.472Z,22.70
2022-08-14T03:21:03.808Z,22.63
2022-08-14T03:23:38.019Z,22.58
2022-08-14T03:26:12.620Z,22.53
2022-08-14T03:28:48.802Z,22.60
2022-08-14T03:31:26.129Z,22.48
2022-08-14T03:33:56.925Z,22.55
2022-08-14T03:37:37.591Z,22.55
2022-08-14T03:39:22.186Z,22.65
2022-08-14T03:41:51.954Z,22.53
2022-08-14T03:45:25.532Z,22.60
2022-08-14T03:47:12.283Z,22.67
2022-08-14T03:49:49.765Z,22.61
2022-08-14T03:52:39.214Z,22.56
2022-08-14T03:55:08.910Z,22.35
2022-08-14T03:57:38.044Z,22.54
2022-08-14T04:00:40.392Z,22.46
2022-08-14T04:03:02.533Z,22.38
2022-08-14T04:05:43.107Z,22.48
2022-08-14T04:08:22.636Z,22.58
2022-08-14T04:10:51.618Z,22.64
2022-08-14T04:13:21.050Z,22.70
2022-08-14T04:16:01.441Z,22.55
2022-08-14T04:18:32.395Z,22.69
2022-08-14T04:21:04.013Z,22.78
2022-08-14T04:23:33.806Z,22.66
2022-08-14T04:26:08.241Z,22.58
2022-08-14T04:29:07.369Z,22.58
2022-08-14T04:33:02.796Z,22.52
2022-08-14T04:34:24.089Z,22.59
2022-08-14T04:37:22.147Z,22.80
2022-08-14T04:40:13.494Z,22.48
2022-08-14T04:43:01.330Z,22.56
2022-08-14T04:45:40.680Z,22.62
2022-08-14T04:48:13.928Z,22.61
2022-08-14T04:51:03.374Z,22.60
2022-08-14T04:53:35.053Z,22.55
2022-08-14T04:56:06.015Z,22.54
2022-08-14T04:58:39.816Z,22.37
2022-08-14T05:01:12.859Z,22.57
2022-08-14T05:03:50.602Z,22.23
2022-08-14T05:06:34.924Z,22.46
2022-08-14T05:09:13.903Z,22.67
2022-08-14T05:11:44.378Z,22.68
2022-08-14T05:14:17.097Z,22.76
2022-08-14T05:17:01.797Z,22.68
2022-08-14T05:19:32.592Z,22.83
2022-08-14T05:22:17.053Z,22.92
2022-08-14T05:24:50.571Z,22.58
2022-08-14T05:27:23.053Z,22.82
2022-08-14T05:29:55.357Z,22.86
2022-08-14T05:32:27.525Z,22.78
2022-08-14T05:34:59.323Z,22.67
2022-08-14T05:37:29.964Z,22.76
2022-08-14T05:40:00.952Z,22.78
2022-08-14T05:42:34.311Z,22.79
2022-08-14T05:45:17.399Z,22.97
2022-08-14T05:47:45.663Z,22.92
2022-08-14T05:50:20.625Z,22.86
2022-08-14T05:52:50.815Z,22.78
2022-08-14T05:55:22.119Z,22.83
2022-08-14T05:57:59.347Z,23.11
2022-08-14T06:00:36.055Z,23.09
2022-08-14T06:03:09.687Z,23.13
2022-08-14T06:05:39.822Z,23.10
2022-08-14T06:08:31.197Z,23.17
2022-08-14T06:11:06.651Z,23.20
2022-08-14T06:13:44.502Z,23.39
2022-08-14T06:16:17.443Z,23.30
2022-08-14T06:18:48.359Z,23.41
2022-08-14T06:21:18.265Z,23.34
2022-08-14T06:23:49.050Z,23.43
2022-08-14T06:26:20.645Z,23.26
2022-08-14T06:28:51.840Z,23.15
2022-08-14T06:31:21.128Z,23.38
2022-08-14T06:35:04.398Z,23.33
2022-08-14T06:36:39.864Z,23.25
2022-08-14T06:39:10.105Z,23.07
2022-08-14T06:41:56.872Z,23.29
2022-08-14T06:44:32.775Z,23.15
2022-08-14T06:47:02.867Z,23.08
2022-08-14T06:49:40.134Z,23.34
2022-08-14T06:52:16.398Z,23.22
2022-08-14T06:54:44.988Z,23.24
2022-08-14T06:57:14.146Z,23.24
2022-08-14T06:59:43.202Z,23.30
2022-08-14T07:02:29.336Z,23.27
2022-08-14T07:05:20.787Z,23.24
2022-08-14T07:07:50.947Z,23.26
2022-08-14T07:10:25.032Z,23.12
2022-08-14T07:13:01.015Z,23.30
2022-08-14T07:15:34.202Z,23.39
2022-08-14T07:18:10.899Z,23.39
2022-08-14T07:20:41.023Z,23.51
2022-08-14T07:23:19.736Z,23.67
2022-08-14T07:25:51.673Z,23.57
2022-08-14T07:28:23.840Z,23.42
2022-08-14T07:30:56.422Z,23.63
2022-08-14T07:33:30.082Z,23.67
2022-08-14T07:36:01.944Z,23.61
2022-08-14T07:38:37.769Z,23.44
2022-08-14T07:41:14.498Z,23.37
2022-08-14T07:43:55.169Z,23.60
2022-08-14T07:46:28.599Z,23.56
2022-08-14T07:48:59.121Z,23.59
2022-08-14T07:51:34.241Z,23.83
2022-08-14T07:54:11.436Z,23.72
2022-08-14T07:56:47.582Z,23.62
2022-08-14T07:59:20.731Z,23.63
2022-08-14T08:02:19.079Z,23.78
2022-08-14T08:04:50.648Z,23.82
2022-08-14T08:07:23.037Z,23.88
2022-08-14T08:09:56.862Z,23.87
2022-08-14T08:12:29.492Z,23.88
2022-08-14T08:15:02.900Z,23.91
2022-08-14T08:17:38.217Z,23.98
2022-08-14T08:20:12.117Z,23.77
2022-08-14T08:22:47.949Z,23.92
2022-08-14T08:25:18.964Z,24.03
2022-08-14T08:27:56.860Z,24.12
2022-08-14T08:30:26.203Z,23.80
2022-08-14T08:32:56.802Z,23.71
2022-08-14T08:35:46.107Z,23.74
2022-08-14T08:39:18.418Z,23.85
2022-08-14T08:41:09.621Z,24.02
2022-08-14T08:43:46.030Z,23.97
2022-08-14T08:46:21.137Z,24.20
2022-08-14T08:48:54.158Z,24.12
2022-08-14T08:51:25.200Z,24.04
2022-08-14T08:54:04.226Z,24.02
2022-08-14T08:56:42.906Z,23.82
2022-08-14T08:59:20.412Z,24.14
2022-08-14T09:01:56.442Z,24.24
2022-08-14T09:04:26.705Z,24.24
2022-08-14T09:07:09.519Z,24.37
2022-08-14T09:09:53.613Z,24.65
2022-08-14T09:12:24.262Z,24.51
2022-08-14T09:14:53.432Z,24.22
2022-08-14T09:17:26.000Z,24.24
2022-08-14T09:19:54.907Z,24.10
2022-08-14T09:22:36.168Z,24.45
2022-08-14T09:25:10.608Z,24.48
2022-08-14T09:27:40.559Z,24.60
2022-08-14T09:30:31.046Z,24.63
2022-08-14T09:33:23.328Z,24.90
2022-08-14T09:36:04.704Z,24.92
2022-08-14T09:38:40.692Z,25.04
2022-08-14T09:41:15.473Z,25.02
2022-08-14T09:43:54.095Z,25.25
2022-08-14T09:46:25.729Z,25.13
2022-08-14T09:49:01.464Z,25.15
2022-08-14T09:51:33.044Z,24.65
2022-08-14T09:54:22.783Z,25.10
2022-08-14T09:56:56.634Z,25.17
2022-08-14T09:59:32.148Z,24.71
2022-08-14T10:02:02.060Z,24.87
2022-08-14T10:04:34.839Z,25.05
2022-08-14T10:07:05.895Z,24.98
2022-08-14T10:09:34.688Z,25.20
2022-08-14T10:12:05.056Z,25.12
2022-08-14T10:14:37.102Z,25.23
2022-08-14T10:17:08.856Z,25.20
2022-08-14T10:19:37.491Z,25.29
2022-08-14T10:23:22.233Z,25.32
2022-08-14T10:24:56.129Z,25.53
2022-08-14T10:27:26.552Z,25.62
2022-08-14T10:30:01.012Z,25.67
2022-08-14T10:32:40.037Z,25.55
2022-08-14T10:35:14.226Z,25.57
2022-08-14T10:37:46.779Z,25.78
2022-08-14T10:40:38.187Z,25.62
2022-08-14T10:43:17.882Z,25.22
2022-08-14T10:46:03.799Z,25.24
2022-08-14T10:48:57.439Z,25.68
2022-08-14T10:51:29.904Z,25.86
2022-08-14T10:54:16.303Z,25.85
2022-08-14T10:56:51.863Z,26.45
2022-08-14T10:59:23.499Z,26.50
2022-08-14T11:02:06.048Z,26.39
2022-08-14T11:04:34.314Z,26.20
2022-08-14T11:07:19.267Z,26.51
2022-08-14T11:09:55.702Z,26.43
2022-08-14T11:12:34.926Z,26.88
2022-08-14T11:15:10.321Z,26.82
2022-08-14T11:17:40.039Z,26.13
2022-08-14T11:20:16.153Z,26.19
2022-08-14T11:22:56.729Z,26.05
2022-08-14T11:25:43.949Z,25.87
2022-08-14T11:28:46.906Z,25.91
2022-08-14T11:31:14.513Z,26.36
2022-08-14T11:33:49.820Z,26.49
2022-08-14T11:36:18.955Z,26.88
2022-08-14T11:38:48.172Z,26.98
2022-08-14T11:41:17.640Z,26.57
2022-08-14T11:43:58.550Z,26.35
2022-08-14T11:46:36.219Z,26.50
2022-08-14T11:49:09.466Z,26.15
2022-08-14T11:51:53.401Z,26.53
2022-08-14T11:54:34.953Z,26.82
2022-08-14T11:57:04.669Z,27.06
2022-08-14T11:59:34.171Z,27.39
2022-08-14T12:03:01.760Z,27.84
2022-08-14T12:05:03.848Z,28.20
2022-08-14T12:07:32.710Z,27.69
2022-08-14T12:10:26.691Z,27.63
2022-08-14T12:12:54.911Z,27.75
2022-08-14T12:15:36.107Z,27.47
2022-08-14T12:18:05.010Z,27.69
2022-08-14T12:20:45.842Z,26.91
2022-08-14T12:23:25.891Z,26.90
2022-08-14T12:26:32.071Z,26.77
2022-08-14T12:29:00.047Z,26.57
2022-08-14T12:31:36.316Z,26.54
2022-08-14T12:34:14.993Z,26.88
2022-08-14T12:36:50.375Z,27.26
2022-08-14T12:39:20.028Z,27.13
2022-08-14T12:41:53.890Z,26.67
2022-08-14T12:44:31.210Z,26.81
2022-08-14T12:47:06.395Z,26.53
2022-08-14T12:49:35.382Z,26.67
2022-08-14T12:52:16.925Z,26.85
2022-08-14T12:54:45.322Z,26.97
2022-08-14T12:57:42.661Z,27.86
2022-08-14T13:00:22.512Z,28.15
2022-08-14T13:02:56.565Z,27.80
2022-08-14T13:05:27.317Z,28.35
2022-08-14T13:07:59.186Z,28.59
2022-08-14T13:10:46.542Z,28.38
2022-08-14T13:13:18.153Z,28.37
2022-08-14T13:15:57.268Z,28.45
2022-08-14T13:18:27.890Z,28.38
2022-08-14T13:21:01.058Z,27.94
2022-08-14T13:23:36.121Z,27.87
2022-08-14T13:26:04.972Z,27.52
2022-08-14T13:28:37.532Z,27.59
2022-08-14T13:31:11.481Z,28.87
2022-08-14T13:33:41.326Z,29.49
2022-08-14T13:36:24.210Z,30.30
2022-08-14T13:39:01.569Z,30.51
2022-08-14T13:41:31.693Z,30.64
2022-08-14T13:44:05.237Z,30.62
2022-08-14T13:46:43.663Z,30.66
2022-08-14T13:49:14.954Z,30.71
2022-08-14T13:51:46.653Z,30.86
2022-08-14T13:54:21.221Z,31.14
2022-08-14T13:56:50.737Z,31.52
2022-08-14T13:59:20.416Z,31.62
2022-08-14T14:01:51.692Z,30.42
2022-08-14T14:04:21.632Z,29.84
2022-08-14T14:06:52.247Z,31.09
2022-08-14T14:09:37.498Z,30.10
2022-08-14T14:12:38.177Z,29.81
2022-08-14T14:15:05.446Z,30.40
2022-08-14T14:17:34.094Z,30.92
2022-08-14T14:20:02.987Z,30.91
2022-08-14T14:23:01.379Z,30.79
2022-08-14T14:25:23.813Z,30.55
2022-08-14T14:27:53.310Z,31.01
2022-08-14T14:30:52.588Z,30.49
2022-08-14T14:33:42.450Z,29.87
2022-08-14T14:36:04.963Z,29.18
2022-08-14T14:38:40.964Z,29.22
2022-08-14T14:41:11.187Z,29.69
2022-08-14T14:43:45.057Z,29.97
2022-08-14T14:46:16.304Z,30.61
2022-08-14T14:48:54.078Z,31.14
2022-08-14T14:51:23.282Z,30.29
2022-08-14T14:53:52.493Z,30.45
2022-08-14T14:56:51.899Z,30.87
2022-08-14T14:59:13.051Z,30.08
2022-08-14T15:01:41.752Z,30.39
2022-08-14T15:04:19.844Z,30.12
2022-08-14T15:06:48.726Z,30.12
2022-08-14T15:09:18.066Z,30.63
2022-08-14T15:11:47.858Z,30.65
2022-08-14T15:14:55.357Z,30.51
2022-08-14T15:17:06.565Z,30.53
2022-08-14T15:19:34.965Z,30.82
2022-08-14T15:22:03.686Z,30.96
2022-08-14T15:24:31.868Z,30.49
2022-08-14T15:27:03.352Z,30.77
2022-08-14T15:29:31.651Z,30.12
2022-08-14T15:31:59.970Z,30.55
2022-08-14T15:34:46.169Z,31.31
2022-08-14T15:37:16.986Z,30.56
2022-08-14T15:39:45.679Z,30.08
2022-08-14T15:42:17.035Z,31.01
2022-08-14T15:44:58.372Z,31.39
2022-08-14T15:47:30.718Z,31.90
2022-08-14T15:50:00.570Z,32.11
2022-08-14T15:52:33.040Z,32.01
2022-08-14T15:55:04.796Z,32.60
2022-08-14T15:57:35.516Z,32.94
2022-08-14T16:00:40.575Z,32.64
2022-08-14T16:03:16.727Z,32.26
2022-08-14T16:05:45.958Z,32.21
2022-08-14T16:08:26.853Z,32.85
2022-08-14T16:11:00.898Z,32.53
2022-08-14T16:13:41.717Z,32.80
2022-08-14T16:16:47.293Z,32.56
2022-08-14T16:19:07.251Z,33.05
2022-08-14T16:21:40.473Z,31.75
2022-08-14T16:24:26.996Z,32.16
2022-08-14T16:27:00.275Z,31.97
2022-08-14T16:29:31.487Z,32.71
2022-08-14T16:32:00.267Z,32.99
2022-08-14T16:34:44.087Z,32.45
2022-08-14T16:37:18.459Z,32.22
2022-08-14T16:39:48.633Z,32.54
2022-08-14T16:43:02.969Z,32.41
2022-08-14T16:45:10.574Z,32.25
2022-08-14T16:47:39.761Z,32.11
2022-08-14T16:50:09.449Z,32.16
2022-08-14T16:52:44.109Z,32.14
2022-08-14T16:55:17.818Z,32.08
2022-08-14T16:57:50.541Z,31.64
2022-08-14T17:00:44.178Z,31.08
2022-08-14T17:03:14.697Z,31.06
2022-08-14T17:05:47.062Z,30.53
2022-08-14T17:08:41.706Z,30.58
2022-08-14T17:11:09.927Z,30.56
2022-08-14T17:13:59.895Z,30.43
2022-08-14T17:16:37.444Z,30.24
2022-08-14T17:19:13.731Z,29.92
2022-08-14T17:21:46.965Z,29.37
2022-08-14T17:24:56.644Z,28.94
2022-08-14T17:27:07.469Z,28.71
2022-08-14T17:29:44.484Z,28.67
2022-08-14T17:32:44.183Z,28.54
2022-08-14T17:35:16.519Z,28.37
2022-08-14T17:38:39.185Z,28.39
2022-08-14T17:41:19.144Z,28.17
2022-08-14T17:43:47.377Z,28.23
2022-08-14T17:46:36.389Z,27.94
2022-08-14T17:49:15.062Z,27.98
2022-08-14T17:52:07.722Z,27.94
2022-08-14T17:54:53.049Z,27.73
2022-08-14T17:57:35.334Z,27.82
2022-08-14T18:00:06.587Z,27.93
2022-08-14T18:02:35.503Z,27.88
2022-08-14T18:05:08.425Z,27.83
2022-08-14T18:08:31.525Z,27.71
2022-08-14T18:10:54.767Z,27.57
2022-08-14T18:13:16.567Z,27.48
2022-08-14T18:15:45.025Z,27.39
2022-08-14T18:18:19.518Z,27.50
2022-08-14T18:21:40.263Z,27.36
2022-08-14T18:23:42.341Z,27.22
2022-08-14T18:26:36.826Z,27.17
2022-08-14T18:29:03.424Z,27.21
2022-08-14T18:31:45.371Z,27.18
2022-08-14T18:34:31.599Z,27.32
2022-08-14T18:37:17.245Z,27.10
2022-08-14T18:40:00.964Z,27.05
2022-08-14T18:42:46.636Z,27.00
2022-08-14T18:45:18.575Z,26.99
2022-08-14T18:48:06.514Z,26.92
2022-08-14T18:50:48.824Z,26.91
2022-08-14T18:53:24.775Z,26.80
2022-08-14T18:56:01.925Z,26.84
2022-08-14T18:58:48.265Z,26.81
2022-08-14T19:01:29.872Z,26.54
2022-08-14T19:04:02.390Z,26.44
2022-08-14T19:06:41.722Z,26.42
2022-08-14T19:09:43.770Z,26.24
2022-08-14T19:13:00.447Z,26.34
2022-08-14T19:15:32.745Z,26.19
2022-08-14T19:18:13.804Z,26.07
2022-08-14T19:20:52.835Z,26.16
2022-08-14T19:23:42.824Z,26.15
2022-08-14T19:26:35.796Z,26.03
2022-08-14T19:29:23.832Z,26.02
2022-08-14T19:31:56.183Z,26.00
2022-08-14T19:34:48.092Z,25.86
2022-08-14T19:37:45.155Z,25.83
2022-08-14T19:40:15.377Z,25.68
2022-08-14T19:42:53.330Z,25.77
2022-08-14T19:45:27.691Z,25.76
2022-08-14T19:47:57.838Z,25.84
2022-08-14T19:50:40.232Z,25.73
2022-08-14T19:53:16.794Z,25.79
2022-08-14T19:55:59.215Z,25.64
2022-08-14T19:58:54.842Z,25.61
2022-08-14T20:01:37.406Z,25.55
2022-08-14T20:04:45.350Z,25.47
2022-08-14T20:07:01.638Z,25.63
2022-08-14T20:11:03.673Z,25.44
2022-08-14T20:12:35.232Z,25.42
2022-08-14T20:15:08.812Z,25.35
2022-08-14T20:17:40.380Z,25.35
2022-08-14T20:20:21.039Z,25.49
2022-08-14T20:23:11.558Z,25.39
2022-08-14T20:25:45.321Z,25.49
2022-08-14T20:28:32.162Z,25.45
2022-08-14T20:31:15.793Z,25.37
2022-08-14T20:34:06.205Z,25.25
2022-08-14T20:36:40.888Z,25.29
2022-08-14T20:39:15.163Z,25.28
2022-08-14T20:41:51.152Z,25.28
2022-08-14T20:44:41.015Z,25.16
2022-08-14T20:47:15.260Z,25.18
2022-08-14T20:49:43.360Z,25.35
2022-08-14T20:52:18.587Z,25.30
2022-08-14T20:54:51.196Z,25.16
2022-08-14T20:57:20.949Z,25.31
2022-08-14T20:59:53.206Z,25.39
2022-08-14T21:02:46.871Z,25.14
2022-08-14T21:05:33.460Z,25.10
2022-08-14T21:08:08.443Z,25.16
2022-08-14T21:10:50.780Z,25.14
2022-08-14T21:13:27.363Z,24.93
2022-08-14T21:16:33.725Z,24.93
2022-08-14T21:19:00.207Z,24.92
2022-08-14T21:21:41.714Z,24.86
2022-08-14T21:24:39.500Z,24.59
2022-08-14T21:27:12.210Z,24.63
2022-08-14T21:29:53.775Z,24.48
2022-08-14T21:32:35.172Z,24.29
2022-08-14T21:35:08.307Z,24.36
2022-08-14T21:37:44.093Z,24.37
2022-08-14T21:40:31.658Z,24.23
2022-08-14T21:43:01.419Z,24.11
2022-08-14T21:45:35.403Z,24.30
2022-08-14T21:48:10.533Z,24.22
2022-08-14T21:51:01.356Z,24.15
2022-08-14T21:53:34.172Z,24.06
2022-08-14T21:56:04.047Z,24.20
2022-08-14T21:58:54.462Z,24.03
2022-08-14T22:01:21.682Z,24.20
2022-08-14T22:03:55.050Z,24.09
2022-08-14T22:06:29.063Z,24.05
2022-08-14T22:08:58.550Z,24.09
2022-08-14T22:11:28.864Z,24.04
2022-08-14T22:14:02.449Z,23.80
2022-08-14T22:17:02.140Z,23.66
2022-08-14T22:19:47.223Z,23.87
2022-08-14T22:22:25.835Z,23.87
2022-08-14T22:25:00.086Z,23.77
2022-08-14T22:27:29.720Z,24.10
2022-08-14T22:30:03.051Z,24.26
2022-08-14T22:32:57.090Z,24.21
2022-08-14T22:35:23.468Z,24.03
2022-08-14T22:38:34.993Z,23.99
2022-08-14T22:41:01.458Z,24.04
2022-08-14T22:43:35.046Z,23.93
2022-08-14T22:46:14.431Z,24.09
2022-08-14T22:48:45.256Z,23.91
2022-08-14T22:51:18.099Z,23.95
2022-08-14T22:53:48.710Z,24.13
2022-08-14T22:56:22.016Z,23.99
2022-08-14T22:58:54.064Z,23.83
2022-08-14T23:01:57.323Z,23.70
2022-08-14T23:04:35.967Z,23.86
2022-08-14T23:07:07.335Z,23.88
2022-08-14T23:09:56.941Z,23.82
2022-08-14T23:12:29.606Z,23.88
2022-08-14T23:14:59.271Z,23.76
2022-08-14T23:17:39.318Z,23.86
2022-08-14T23:20:19.146Z,23.71
2022-08-14T23:22:50.517Z,23.83
2022-08-14T23:25:57.978Z,23.85
2022-08-14T23:28:33.719Z,23.91
2022-08-14T23:31:01.391Z,23.86
2022-08-14T23:33:29.729Z,23.71
2022-08-14T23:35:59.416Z,23.93
2022-08-14T23:38:30.604Z,23.85
2022-08-14T23:41:02.429Z,23.95
2022-08-14T23:43:32.532Z,23.81
2022-08-14T23:46:01.521Z,23.84
2022-08-14T23:48:46.457Z,23.65
2022-08-14T23:51:18.150Z,23.72
2022-08-14T23:53:51.467Z,23.78
2022-08-14T23:56:30.427Z,23.83
2022-08-14T23:59:01.192Z,23.58
